createdAt,value
2018-12-21T00:00:26.062Z,995.62
2018-12-21T00:01:32.198Z,995.63
2018-12-21T00:02:38.338Z,995.64
2018-12-21T00:03:44.583Z,995.58
2018-12-21T00:04:50.121Z,995.54
2018-12-21T00:05:56.761Z,995.49
2018-12-21T00:07:02.398Z,995.52
2018-12-21T00:08:08.537Z,995.53
2018-12-21T00:09:15.169Z,995.55
2018-12-21T00:10:20.811Z,995.56
2018-12-21T00:11:27.464Z,995.55
2018-12-21T00:12:33.096Z,995.47
2018-12-21T00:13:39.730Z,995.49
2018-12-21T00:14:45.370Z,995.39
2018-12-21T00:15:51.997Z,995.43
2018-12-21T00:16:58.148Z,995.39
2018-12-21T00:18:04.283Z,995.43
2018-12-21T00:19:10.425Z,995.42
2018-12-21T00:20:16.071Z,995.43
2018-12-21T00:21:22.715Z,995.41
2018-12-21T00:22:28.339Z,995.46
2018-12-21T00:23:34.609Z,995.42
2018-12-21T00:24:41.109Z,995.40
2018-12-21T00:25:47.260Z,995.37
2018-12-21T00:26:52.928Z,995.29
2018-12-21T00:27:59.541Z,995.28
2018-12-21T00:29:05.202Z,995.29
2018-12-21T00:30:11.862Z,995.27
2018-12-21T00:31:17.941Z,995.26
2018-12-21T00:32:23.597Z,995.27
2018-12-21T00:33:30.225Z,995.29
2018-12-21T00:34:36.367Z,995.24
2018-12-21T00:35:42.008Z,995.25
2018-12-21T00:36:48.153Z,995.24
2018-12-21T00:37:54.792Z,995.26
2018-12-21T00:39:00.425Z,995.19
2018-12-21T00:40:07.059Z,995.18
2018-12-21T00:41:12.701Z,995.12
2018-12-21T00:42:18.846Z,995.08
2018-12-21T00:43:25.474Z,995.05
2018-12-21T00:44:31.616Z,995.04
2018-12-21T00:45:37.751Z,995.02
2018-12-21T00:46:43.408Z,995.01
2018-12-21T00:47:49.543Z,995.05
2018-12-21T00:48:56.178Z,995.04
2018-12-21T00:50:01.824Z,995.03
2018-12-21T00:51:07.962Z,995.01
2018-12-21T00:52:14.599Z,995.01
2018-12-21T00:53:20.826Z,994.97
2018-12-21T00:54:26.874Z,995.02
2018-12-21T00:55:32.520Z,995.05
2018-12-21T00:56:39.157Z,995.06
2018-12-21T00:57:44.820Z,995.03
2018-12-21T00:58:51.422Z,995.03
2018-12-21T00:59:57.081Z,995.05
2018-12-21T01:01:03.220Z,995.02
2018-12-21T01:02:09.557Z,995.07
2018-12-21T01:03:15.688Z,995.03
2018-12-21T01:04:22.132Z,995.07
2018-12-21T01:05:28.274Z,995.08
2018-12-21T01:06:34.407Z,995.06
2018-12-21T01:07:40.066Z,995.00
2018-12-21T01:08:46.698Z,994.99
2018-12-21T01:09:52.835Z,994.98
2018-12-21T01:10:58.970Z,994.97
2018-12-21T01:12:04.629Z,994.88
2018-12-21T01:13:12.018Z,994.89
2018-12-21T01:14:17.399Z,994.82
2018-12-21T01:15:23.036Z,994.77
2018-12-21T01:16:29.675Z,994.85
2018-12-21T01:17:35.325Z,994.83
2018-12-21T01:18:41.469Z,994.79
2018-12-21T01:19:48.109Z,994.83
2018-12-21T01:20:54.264Z,994.83
2018-12-21T01:22:00.404Z,994.81
2018-12-21T01:23:06.098Z,994.82
2018-12-21T01:24:12.717Z,994.89
2018-12-21T01:25:18.335Z,994.87
2018-12-21T01:26:24.971Z,994.92
2018-12-21T01:27:31.095Z,994.90
2018-12-21T01:28:37.248Z,994.88
2018-12-21T01:29:43.392Z,994.92
2018-12-21T01:30:49.538Z,994.94
2018-12-21T01:31:55.682Z,994.93
2018-12-21T01:33:01.827Z,994.95
2018-12-21T01:34:07.993Z,994.92
2018-12-21T01:35:14.616Z,994.90
2018-12-21T01:36:19.762Z,994.93
2018-12-21T01:37:25.923Z,994.87
2018-12-21T01:38:32.043Z,994.83
2018-12-21T01:39:38.669Z,994.88
2018-12-21T01:40:44.325Z,994.84
2018-12-21T01:41:50.596Z,994.86
2018-12-21T01:42:56.611Z,994.81
2018-12-21T01:44:03.252Z,994.84
2018-12-21T01:45:08.907Z,994.83
2018-12-21T01:46:15.043Z,994.86
2018-12-21T01:47:21.679Z,994.85
2018-12-21T01:48:27.821Z,994.75
2018-12-21T01:49:33.456Z,994.80
2018-12-21T01:50:39.602Z,994.77
2018-12-21T01:51:47.175Z,994.75
2018-12-21T01:52:51.889Z,994.77
2018-12-21T01:53:58.024Z,994.75
2018-12-21T01:55:04.662Z,994.71
2018-12-21T01:56:10.840Z,994.71
2018-12-21T01:57:16.963Z,994.74
2018-12-21T01:58:23.076Z,994.73
2018-12-21T01:59:29.221Z,994.70
2018-12-21T02:00:35.371Z,994.69
2018-12-21T02:01:41.502Z,994.64
2018-12-21T02:02:47.627Z,994.63
2018-12-21T02:03:53.787Z,994.62
2018-12-21T02:04:59.917Z,994.57
2018-12-21T02:06:06.070Z,994.53
2018-12-21T02:07:12.210Z,994.51
2018-12-21T02:08:17.848Z,994.47
2018-12-21T02:09:25.487Z,994.43
2018-12-21T02:10:30.143Z,994.45
2018-12-21T02:11:36.280Z,994.39
2018-12-21T02:12:42.932Z,994.39
2018-12-21T02:13:48.577Z,994.39
2018-12-21T02:14:54.713Z,994.36
2018-12-21T02:16:01.351Z,994.39
2018-12-21T02:17:06.996Z,994.34
2018-12-21T02:18:13.621Z,994.37
2018-12-21T02:19:19.273Z,994.33
2018-12-21T02:20:25.919Z,994.33
2018-12-21T02:21:32.068Z,994.33
2018-12-21T02:22:38.207Z,994.28
2018-12-21T02:23:44.340Z,994.28
2018-12-21T02:24:50.597Z,994.30
2018-12-21T02:25:56.625Z,994.21
2018-12-21T02:27:02.283Z,994.21
2018-12-21T02:28:08.423Z,994.20
2018-12-21T02:29:15.068Z,994.14
2018-12-21T02:30:20.711Z,994.13
2018-12-21T02:31:27.343Z,994.09
2018-12-21T02:32:33.487Z,994.08
2018-12-21T02:33:39.644Z,994.02
2018-12-21T02:34:45.299Z,994.07
2018-12-21T02:35:51.452Z,994.09
2018-12-21T02:36:58.104Z,994.08
2018-12-21T02:38:03.737Z,994.04
2018-12-21T02:39:09.892Z,994.02
2018-12-21T02:40:16.023Z,994.00
2018-12-21T02:41:22.673Z,994.00
2018-12-21T02:42:28.343Z,993.97
2018-12-21T02:43:35.963Z,993.92
2018-12-21T02:44:41.114Z,993.89
2018-12-21T02:45:47.250Z,993.89
2018-12-21T02:46:53.414Z,993.87
2018-12-21T02:47:59.063Z,993.83
2018-12-21T02:49:05.210Z,993.76
2018-12-21T02:50:11.856Z,993.73
2018-12-21T02:51:17.516Z,993.71
2018-12-21T02:52:24.154Z,993.67
2018-12-21T02:53:29.799Z,993.68
2018-12-21T02:54:36.446Z,993.63
2018-12-21T02:55:42.585Z,993.68
2018-12-21T02:56:48.734Z,993.58
2018-12-21T02:57:54.887Z,993.63
2018-12-21T02:59:01.028Z,993.58
2018-12-21T03:00:07.276Z,993.55
2018-12-21T03:01:13.336Z,993.45
2018-12-21T03:02:19.480Z,993.54
2018-12-21T03:03:25.127Z,993.47
2018-12-21T03:04:31.775Z,993.50
2018-12-21T03:05:37.916Z,993.46
2018-12-21T03:06:44.079Z,993.49
2018-12-21T03:07:50.217Z,993.50
2018-12-21T03:08:56.361Z,993.45
2018-12-21T03:10:02.589Z,993.41
2018-12-21T03:11:08.687Z,993.45
2018-12-21T03:12:15.305Z,993.38
2018-12-21T03:13:20.949Z,993.33
2018-12-21T03:14:27.094Z,993.34
2018-12-21T03:15:33.253Z,993.29
2018-12-21T03:16:39.417Z,993.31
2018-12-21T03:17:45.043Z,993.26
2018-12-21T03:18:51.680Z,993.21
2018-12-21T03:19:57.335Z,993.25
2018-12-21T03:21:03.973Z,993.19
2018-12-21T03:22:14.608Z,993.18
2018-12-21T03:23:16.276Z,993.20
2018-12-21T03:24:21.941Z,993.15
2018-12-21T03:25:28.578Z,993.16
2018-12-21T03:26:34.217Z,993.14
2018-12-21T03:27:40.861Z,993.14
2018-12-21T03:28:47.019Z,993.06
2018-12-21T03:29:53.169Z,993.11
2018-12-21T03:30:58.820Z,993.04
2018-12-21T03:32:04.973Z,993.06
2018-12-21T03:33:11.113Z,992.95
2018-12-21T03:34:17.757Z,992.86
2018-12-21T03:35:23.911Z,992.85
2018-12-21T03:36:29.553Z,992.77
2018-12-21T03:37:35.701Z,992.73
2018-12-21T03:38:41.850Z,992.78
2018-12-21T03:39:48.003Z,992.69
2018-12-21T03:40:54.149Z,992.63
2018-12-21T03:42:00.294Z,992.63
2018-12-21T03:43:06.476Z,992.60
2018-12-21T03:44:13.094Z,992.59
2018-12-21T03:45:20.230Z,992.56
2018-12-21T03:46:26.373Z,992.47
2018-12-21T03:47:31.537Z,992.44
2018-12-21T03:48:38.681Z,992.43
2018-12-21T03:49:43.839Z,992.43
2018-12-21T03:50:49.990Z,992.33
2018-12-21T03:51:56.143Z,992.35
2018-12-21T03:53:02.288Z,992.34
2018-12-21T03:54:07.948Z,992.27
2018-12-21T03:55:14.595Z,992.26
2018-12-21T03:56:20.231Z,992.25
2018-12-21T03:57:26.890Z,992.25
2018-12-21T03:58:33.040Z,992.25
2018-12-21T03:59:39.191Z,992.25
2018-12-21T04:00:45.322Z,992.23
2018-12-21T04:01:51.476Z,992.14
2018-12-21T04:02:57.139Z,992.14
2018-12-21T04:04:03.292Z,992.13
2018-12-21T04:05:09.927Z,992.07
2018-12-21T04:06:16.085Z,992.01
2018-12-21T04:07:21.739Z,991.99
2018-12-21T04:08:27.894Z,991.97
2018-12-21T04:09:34.039Z,992.00
2018-12-21T04:10:40.683Z,991.93
2018-12-21T04:11:46.589Z,992.01
2018-12-21T04:12:52.596Z,991.88
2018-12-21T04:13:58.643Z,991.88
2018-12-21T04:15:04.775Z,991.94
2018-12-21T04:16:11.425Z,991.88
2018-12-21T04:17:17.578Z,991.89
2018-12-21T04:18:23.231Z,991.96
2018-12-21T04:19:29.375Z,991.85
2018-12-21T04:20:36.029Z,991.86
2018-12-21T04:21:42.180Z,991.82
2018-12-21T04:22:47.833Z,991.78
2018-12-21T04:23:54.617Z,991.80
2018-12-21T04:25:00.127Z,991.79
2018-12-21T04:26:06.907Z,991.95
2018-12-21T04:27:12.438Z,991.74
2018-12-21T04:28:18.578Z,991.73
2018-12-21T04:29:24.813Z,991.75
2018-12-21T04:30:30.882Z,991.74
2018-12-21T04:31:37.543Z,991.78
2018-12-21T04:32:43.187Z,991.75
2018-12-21T04:33:49.339Z,991.80
2018-12-21T04:34:56.000Z,991.78
2018-12-21T04:36:02.140Z,991.68
2018-12-21T04:37:08.289Z,991.78
2018-12-21T04:38:13.955Z,991.72
2018-12-21T04:39:20.091Z,991.69
2018-12-21T04:40:26.742Z,991.62
2018-12-21T04:41:32.901Z,991.61
2018-12-21T04:42:38.564Z,991.55
2018-12-21T04:43:44.706Z,991.64
2018-12-21T04:44:50.910Z,991.77
2018-12-21T04:45:57.511Z,991.66
2018-12-21T04:47:03.168Z,991.64
2018-12-21T04:48:09.515Z,991.61
2018-12-21T04:49:15.974Z,991.63
2018-12-21T04:50:21.819Z,991.56
2018-12-21T04:51:28.292Z,991.53
2018-12-21T04:52:42.940Z,991.52
2018-12-21T04:53:40.600Z,991.57
2018-12-21T04:54:46.228Z,991.50
2018-12-21T04:55:52.869Z,991.47
2018-12-21T04:56:58.520Z,991.41
2018-12-21T04:58:04.687Z,991.39
2018-12-21T04:59:11.316Z,991.42
2018-12-21T05:00:17.464Z,991.36
2018-12-21T05:01:23.610Z,991.37
2018-12-21T05:02:29.277Z,991.43
2018-12-21T05:03:35.405Z,991.45
2018-12-21T05:04:41.583Z,991.44
2018-12-21T05:05:48.209Z,991.53
2018-12-21T05:06:54.361Z,991.54
2018-12-21T05:08:00.573Z,991.49
2018-12-21T05:09:06.626Z,991.50
2018-12-21T05:10:12.277Z,991.50
2018-12-21T05:11:18.937Z,991.52
2018-12-21T05:12:25.077Z,991.48
2018-12-21T05:13:31.203Z,991.50
2018-12-21T05:14:37.341Z,991.52
2018-12-21T05:15:42.979Z,991.53
2018-12-21T05:16:49.625Z,991.50
2018-12-21T05:17:55.268Z,991.49
2018-12-21T05:19:01.905Z,991.47
2018-12-21T05:20:07.574Z,991.44
2018-12-21T05:21:13.681Z,991.45
2018-12-21T05:22:19.822Z,991.36
2018-12-21T05:23:26.590Z,991.36
2018-12-21T05:24:32.117Z,991.30
2018-12-21T05:25:38.234Z,991.32
2018-12-21T05:26:44.873Z,991.33
2018-12-21T05:27:50.530Z,991.39
2018-12-21T05:28:56.681Z,991.38
2018-12-21T05:30:03.792Z,991.41
2018-12-21T05:31:09.434Z,991.36
2018-12-21T05:32:15.563Z,991.38
2018-12-21T05:33:21.203Z,991.30
2018-12-21T05:34:27.834Z,991.27
2018-12-21T05:35:33.979Z,991.28
2018-12-21T05:36:40.123Z,991.32
2018-12-21T05:37:45.771Z,991.31
2018-12-21T05:38:53.390Z,991.29
2018-12-21T05:39:58.577Z,991.25
2018-12-21T05:41:04.671Z,991.23
2018-12-21T05:42:10.811Z,991.20
2018-12-21T05:43:16.956Z,991.17
2018-12-21T05:44:23.091Z,991.11
2018-12-21T05:45:29.230Z,991.11
2018-12-21T05:46:35.393Z,991.12
2018-12-21T05:47:41.516Z,991.17
2018-12-21T05:48:48.653Z,991.21
2018-12-21T05:49:53.294Z,991.22
2018-12-21T05:50:59.936Z,991.26
2018-12-21T05:52:06.122Z,991.23
2018-12-21T05:53:11.729Z,991.24
2018-12-21T05:54:17.854Z,991.16
2018-12-21T05:55:24.584Z,991.24
2018-12-21T05:56:30.647Z,991.23
2018-12-21T05:57:36.279Z,991.18
2018-12-21T05:58:43.919Z,991.05
2018-12-21T05:59:49.056Z,991.08
2018-12-21T06:00:55.197Z,991.11
2018-12-21T06:02:01.329Z,991.05
2018-12-21T06:03:07.472Z,991.03
2018-12-21T06:04:13.121Z,991.04
2018-12-21T06:05:19.738Z,990.97
2018-12-21T06:06:25.890Z,990.94
2018-12-21T06:07:33.843Z,990.93
2018-12-21T06:08:37.702Z,990.87
2018-12-21T06:09:44.315Z,990.89
2018-12-21T06:10:50.436Z,990.86
2018-12-21T06:11:56.575Z,990.79
2018-12-21T06:13:02.715Z,990.79
2018-12-21T06:14:08.864Z,990.79
2018-12-21T06:15:15.029Z,990.73
2018-12-21T06:16:21.178Z,990.71
2018-12-21T06:17:27.288Z,990.67
2018-12-21T06:18:33.426Z,990.74
2018-12-21T06:19:39.072Z,990.72
2018-12-21T06:20:45.214Z,990.72
2018-12-21T06:21:51.844Z,990.70
2018-12-21T06:22:57.496Z,990.72
2018-12-21T06:24:04.128Z,990.66
2018-12-21T06:25:09.774Z,990.63
2018-12-21T06:26:16.408Z,990.58
2018-12-21T06:27:22.636Z,990.54
2018-12-21T06:28:28.178Z,990.51
2018-12-21T06:29:34.812Z,990.47
2018-12-21T06:30:40.965Z,990.42
2018-12-21T06:31:46.605Z,990.45
2018-12-21T06:32:52.737Z,990.41
2018-12-21T06:33:59.380Z,990.36
2018-12-21T06:35:05.037Z,990.37
2018-12-21T06:36:11.155Z,990.36
2018-12-21T06:37:17.295Z,990.34
2018-12-21T06:38:23.918Z,990.34
2018-12-21T06:39:30.078Z,990.23
2018-12-21T06:40:36.203Z,990.26
2018-12-21T06:41:42.346Z,990.22
2018-12-21T06:42:47.990Z,990.13
2018-12-21T06:43:54.124Z,990.12
2018-12-21T06:45:00.768Z,990.03
2018-12-21T06:46:13.951Z,989.97
2018-12-21T06:47:12.556Z,989.88
2018-12-21T06:48:18.683Z,989.83
2018-12-21T06:49:24.827Z,989.85
2018-12-21T06:50:31.452Z,989.82
2018-12-21T06:51:37.597Z,989.84
2018-12-21T06:52:43.231Z,989.75
2018-12-21T06:53:49.880Z,989.78
2018-12-21T06:54:55.520Z,989.75
2018-12-21T06:56:02.212Z,989.70
2018-12-21T06:57:08.279Z,989.78
2018-12-21T06:58:14.433Z,989.72
2018-12-21T06:59:20.085Z,989.65
2018-12-21T07:00:26.207Z,989.62
2018-12-21T07:01:32.345Z,989.59
2018-12-21T07:02:38.493Z,989.64
2018-12-21T07:03:45.135Z,989.61
2018-12-21T07:04:51.271Z,989.63
2018-12-21T07:05:56.902Z,989.48
2018-12-21T07:07:03.539Z,989.55
2018-12-21T07:08:09.691Z,989.50
2018-12-21T07:09:15.337Z,989.43
2018-12-21T07:10:21.550Z,989.41
2018-12-21T07:11:28.106Z,989.46
2018-12-21T07:12:33.763Z,989.49
2018-12-21T07:13:40.386Z,989.48
2018-12-21T07:14:47.522Z,989.45
2018-12-21T07:15:52.666Z,989.45
2018-12-21T07:16:58.307Z,989.46
2018-12-21T07:18:04.479Z,989.44
2018-12-21T07:19:10.593Z,989.34
2018-12-21T07:20:17.232Z,989.45
2018-12-21T07:21:22.876Z,989.39
2018-12-21T07:22:29.499Z,989.33
2018-12-21T07:23:35.157Z,989.27
2018-12-21T07:24:41.309Z,989.27
2018-12-21T07:25:47.930Z,989.27
2018-12-21T07:26:54.061Z,989.27
2018-12-21T07:28:00.210Z,989.27
2018-12-21T07:29:06.340Z,989.31
2018-12-21T07:30:12.000Z,989.27
2018-12-21T07:31:18.631Z,989.28
2018-12-21T07:32:24.760Z,989.20
2018-12-21T07:33:30.414Z,989.22
2018-12-21T07:34:36.556Z,989.18
2018-12-21T07:35:43.193Z,989.15
2018-12-21T07:36:48.829Z,989.09
2018-12-21T07:37:55.479Z,989.08
2018-12-21T07:39:01.114Z,989.07
2018-12-21T07:40:07.318Z,989.00
2018-12-21T07:41:13.400Z,989.00
2018-12-21T07:42:20.026Z,988.95
2018-12-21T07:43:26.165Z,988.96
2018-12-21T07:44:31.824Z,988.91
2018-12-21T07:45:38.469Z,988.92
2018-12-21T07:46:44.602Z,988.87
2018-12-21T07:47:50.259Z,988.90
2018-12-21T07:48:56.388Z,988.80
2018-12-21T07:50:02.542Z,988.76
2018-12-21T07:51:09.164Z,988.72
2018-12-21T07:52:14.827Z,988.68
2018-12-21T07:53:21.450Z,988.64
2018-12-21T07:54:27.115Z,988.64
2018-12-21T07:55:33.258Z,988.70
2018-12-21T07:56:39.399Z,988.64
2018-12-21T07:57:45.590Z,988.65
2018-12-21T07:58:57.107Z,988.66
2018-12-21T07:59:58.317Z,988.59
2018-12-21T08:01:03.975Z,988.60
2018-12-21T08:02:10.122Z,988.58
2018-12-21T08:03:16.772Z,988.53
2018-12-21T08:04:22.412Z,988.64
2018-12-21T08:05:28.596Z,988.53
2018-12-21T08:06:35.211Z,988.52
2018-12-21T08:07:40.864Z,988.49
2018-12-21T08:08:47.505Z,988.45
2018-12-21T08:09:53.666Z,988.45
2018-12-21T08:10:59.392Z,988.41
2018-12-21T08:12:05.938Z,988.43
2018-12-21T08:13:11.614Z,988.47
2018-12-21T08:14:18.235Z,988.41
2018-12-21T08:15:24.394Z,988.41
2018-12-21T08:16:30.545Z,988.42
2018-12-21T08:17:36.193Z,988.30
2018-12-21T08:18:42.829Z,988.33
2018-12-21T08:19:48.994Z,988.37
2018-12-21T08:20:54.661Z,988.36
2018-12-21T08:22:01.283Z,988.32
2018-12-21T08:23:07.442Z,988.33
2018-12-21T08:24:13.580Z,988.31
2018-12-21T08:25:19.239Z,988.32
2018-12-21T08:26:25.404Z,988.31
2018-12-21T08:27:32.052Z,988.37
2018-12-21T08:28:37.689Z,988.38
2018-12-21T08:29:44.342Z,988.35
2018-12-21T08:30:50.095Z,988.31
2018-12-21T08:31:56.642Z,988.45
2018-12-21T08:33:02.287Z,988.32
2018-12-21T08:34:08.939Z,988.28
2018-12-21T08:35:15.192Z,988.36
2018-12-21T08:36:21.237Z,988.33
2018-12-21T08:37:27.400Z,988.29
2018-12-21T08:38:33.057Z,988.34
2018-12-21T08:39:39.202Z,988.30
2018-12-21T08:40:45.845Z,988.34
2018-12-21T08:41:52.104Z,988.25
2018-12-21T08:42:58.148Z,988.30
2018-12-21T08:44:04.313Z,988.26
2018-12-21T08:45:09.976Z,988.24
2018-12-21T08:46:16.126Z,988.19
2018-12-21T08:47:22.775Z,988.11
2018-12-21T08:48:28.926Z,988.01
2018-12-21T08:49:34.586Z,988.00
2018-12-21T08:50:41.249Z,988.02
2018-12-21T08:51:47.408Z,987.97
2018-12-21T08:52:53.546Z,988.07
2018-12-21T08:53:59.701Z,987.90
2018-12-21T08:55:05.854Z,987.81
2018-12-21T08:56:12.014Z,987.87
2018-12-21T08:57:18.167Z,987.78
2018-12-21T08:58:24.323Z,987.84
2018-12-21T08:59:29.980Z,987.82
2018-12-21T09:00:36.647Z,987.75
2018-12-21T09:01:42.293Z,987.85
2018-12-21T09:02:48.953Z,987.80
2018-12-21T09:03:54.632Z,987.79
2018-12-21T09:05:01.253Z,987.66
2018-12-21T09:06:07.420Z,987.64
2018-12-21T09:07:13.593Z,987.60
2018-12-21T09:08:19.749Z,987.64
2018-12-21T09:09:25.437Z,987.65
2018-12-21T09:10:31.758Z,987.63
2018-12-21T09:11:38.222Z,987.50
2018-12-21T09:12:43.889Z,987.56
2018-12-21T09:13:50.583Z,987.50
2018-12-21T09:14:56.701Z,987.57
2018-12-21T09:16:02.862Z,987.59
2018-12-21T09:17:08.531Z,987.49
2018-12-21T09:18:14.677Z,987.42
2018-12-21T09:19:20.834Z,987.41
2018-12-21T09:20:26.998Z,987.40
2018-12-21T09:21:33.157Z,987.37
2018-12-21T09:22:39.818Z,987.29
2018-12-21T09:23:45.490Z,987.27
2018-12-21T09:24:51.644Z,987.24
2018-12-21T09:25:57.901Z,987.23
2018-12-21T09:27:04.586Z,987.15
2018-12-21T09:28:11.807Z,987.06
2018-12-21T09:29:16.786Z,987.02
2018-12-21T09:30:22.442Z,987.04
2018-12-21T09:31:29.191Z,987.00
2018-12-21T09:32:35.276Z,986.94
2018-12-21T09:33:40.938Z,986.96
2018-12-21T09:34:47.113Z,986.92
2018-12-21T09:35:53.765Z,986.90
2018-12-21T09:36:59.422Z,986.77
2018-12-21T09:38:06.083Z,986.82
2018-12-21T09:39:11.742Z,986.73
2018-12-21T09:40:17.919Z,986.64
2018-12-21T09:41:24.571Z,986.58
2018-12-21T09:42:30.762Z,986.53
2018-12-21T09:43:36.892Z,986.55
2018-12-21T09:44:42.565Z,986.43
2018-12-21T09:45:49.220Z,986.40
2018-12-21T09:46:55.383Z,986.46
2018-12-21T09:48:01.552Z,986.50
2018-12-21T09:49:07.687Z,986.36
2018-12-21T09:50:14.311Z,986.35
2018-12-21T09:51:19.520Z,986.33
2018-12-21T09:52:25.693Z,986.29
2018-12-21T09:53:31.863Z,986.21
2018-12-21T09:54:38.578Z,986.23
2018-12-21T09:55:44.679Z,986.21
2018-12-21T09:56:50.841Z,986.32
2018-12-21T09:57:56.512Z,986.24
2018-12-21T09:59:03.172Z,986.25
2018-12-21T10:00:08.846Z,986.11
2018-12-21T10:01:15.496Z,986.11
2018-12-21T10:02:21.179Z,986.02
2018-12-21T10:03:27.349Z,985.99
2018-12-21T10:04:34.014Z,986.02
2018-12-21T10:05:39.686Z,985.87
2018-12-21T10:06:46.341Z,985.95
2018-12-21T10:07:52.020Z,985.85
2018-12-21T10:08:58.227Z,985.78
2018-12-21T10:10:05.362Z,985.83
2018-12-21T10:11:10.538Z,985.86
2018-12-21T10:12:17.194Z,985.91
2018-12-21T10:13:22.878Z,985.93
2018-12-21T10:14:29.543Z,985.84
2018-12-21T10:15:35.722Z,985.69
2018-12-21T10:16:42.382Z,985.65
2018-12-21T10:17:47.559Z,985.63
2018-12-21T10:18:54.222Z,985.52
2018-12-21T10:20:00.404Z,985.46
2018-12-21T10:21:06.077Z,985.44
2018-12-21T10:22:12.749Z,985.46
2018-12-21T10:23:18.918Z,985.42
2018-12-21T10:24:24.620Z,985.38
2018-12-21T10:25:30.786Z,985.30
2018-12-21T10:26:37.459Z,985.34
2018-12-21T10:27:43.632Z,985.26
2018-12-21T10:28:49.867Z,985.26
2018-12-21T10:29:56.000Z,985.17
2018-12-21T10:31:02.209Z,985.20
2018-12-21T10:32:08.342Z,985.30
2018-12-21T10:33:14.565Z,985.15
2018-12-21T10:34:21.726Z,985.12
2018-12-21T10:35:26.882Z,985.04
2018-12-21T10:36:32.574Z,985.05
2018-12-21T10:37:38.753Z,985.01
2018-12-21T10:38:44.938Z,984.83
2018-12-21T10:39:51.110Z,984.90
2018-12-21T10:40:57.792Z,984.83
2018-12-21T10:42:03.475Z,984.80
2018-12-21T10:43:10.143Z,984.77
2018-12-21T10:44:15.837Z,984.85
2018-12-21T10:45:22.519Z,984.72
2018-12-21T10:46:28.224Z,984.80
2018-12-21T10:47:34.878Z,984.70
2018-12-21T10:48:40.572Z,984.66
2018-12-21T10:49:47.292Z,984.55
2018-12-21T10:50:52.949Z,984.72
2018-12-21T10:52:00.143Z,984.69
2018-12-21T10:53:05.870Z,984.65
2018-12-21T10:54:12.008Z,984.58
2018-12-21T10:55:17.708Z,984.48
2018-12-21T10:56:23.893Z,984.38
2018-12-21T10:57:30.699Z,984.49
2018-12-21T10:58:36.770Z,984.35
2018-12-21T10:59:43.590Z,984.32
2018-12-21T11:00:49.179Z,984.37
2018-12-21T11:01:56.361Z,984.25
2018-12-21T11:03:01.096Z,984.21
2018-12-21T11:04:07.767Z,984.18
2018-12-21T11:05:14.819Z,984.08
2018-12-21T11:06:20.185Z,984.07
2018-12-21T11:07:25.890Z,983.95
2018-12-21T11:08:32.559Z,983.87
2018-12-21T11:09:39.771Z,983.87
2018-12-21T11:10:45.936Z,983.88
2018-12-21T11:11:50.706Z,983.81
2018-12-21T11:12:57.393Z,983.70
2018-12-21T11:14:03.604Z,983.90
2018-12-21T11:15:09.836Z,983.79
2018-12-21T11:16:16.033Z,983.78
2018-12-21T11:17:22.245Z,983.62
2018-12-21T11:18:27.951Z,983.77
2018-12-21T11:19:34.171Z,983.69
2018-12-21T11:20:40.384Z,983.73
2018-12-21T11:21:47.092Z,983.73
2018-12-21T11:22:52.792Z,983.70
2018-12-21T11:23:59.006Z,983.52
2018-12-21T11:25:05.712Z,983.51
2018-12-21T11:26:11.908Z,983.63
2018-12-21T11:27:18.140Z,983.69
2018-12-21T11:28:25.542Z,983.70
2018-12-21T11:29:30.045Z,983.47
2018-12-21T11:30:36.256Z,983.51
2018-12-21T11:31:42.964Z,983.48
2018-12-21T11:32:48.664Z,983.47
2018-12-21T11:33:55.354Z,983.38
2018-12-21T11:35:01.069Z,983.41
2018-12-21T11:36:07.777Z,983.42
2018-12-21T11:37:13.989Z,983.44
2018-12-21T11:38:19.695Z,983.37
2018-12-21T11:39:26.410Z,983.35
2018-12-21T11:40:32.128Z,983.33
2018-12-21T11:41:38.337Z,983.32
2018-12-21T11:42:44.538Z,983.35
2018-12-21T11:43:50.752Z,983.36
2018-12-21T11:44:58.576Z,983.29
2018-12-21T11:46:03.688Z,983.28
2018-12-21T11:47:09.899Z,983.48
2018-12-21T11:48:16.108Z,983.38
2018-12-21T11:49:22.311Z,983.39
2018-12-21T11:50:29.527Z,983.31
2018-12-21T11:51:34.262Z,983.28
2018-12-21T11:52:40.455Z,983.35
2018-12-21T11:53:47.169Z,983.22
2018-12-21T11:54:52.881Z,983.26
2018-12-21T11:55:59.190Z,983.30
2018-12-21T11:57:05.791Z,983.31
2018-12-21T11:58:12.008Z,983.27
2018-12-21T11:59:18.238Z,983.26
2018-12-21T12:00:24.432Z,983.39
2018-12-21T12:01:30.164Z,983.35
2018-12-21T12:02:36.859Z,983.41
2018-12-21T12:03:43.091Z,983.39
2018-12-21T12:04:48.790Z,983.33
2018-12-21T12:05:55.496Z,983.20
2018-12-21T12:07:01.217Z,983.22
2018-12-21T12:08:07.446Z,982.98
2018-12-21T12:09:14.136Z,983.18
2018-12-21T12:10:20.356Z,983.27
2018-12-21T12:11:26.579Z,983.36
2018-12-21T12:12:32.801Z,983.41
2018-12-21T12:13:38.992Z,983.24
2018-12-21T12:14:44.719Z,983.29
2018-12-21T12:15:51.432Z,983.24
2018-12-21T12:16:58.763Z,983.21
2018-12-21T12:18:03.364Z,983.08
2018-12-21T12:19:10.084Z,983.16
2018-12-21T12:20:15.805Z,983.08
2018-12-21T12:21:22.019Z,983.10
2018-12-21T12:22:28.256Z,983.23
2018-12-21T12:23:34.962Z,983.28
2018-12-21T12:24:41.195Z,983.28
2018-12-21T12:25:47.400Z,983.24
2018-12-21T12:26:53.119Z,983.20
2018-12-21T12:27:59.849Z,983.09
2018-12-21T12:29:06.122Z,983.17
2018-12-21T12:30:12.294Z,983.12
2018-12-21T12:31:18.024Z,983.15
2018-12-21T12:32:24.742Z,983.18
2018-12-21T12:33:30.990Z,982.99
2018-12-21T12:34:36.726Z,983.00
2018-12-21T12:35:42.979Z,982.95
2018-12-21T12:36:49.692Z,982.93
2018-12-21T12:37:55.937Z,982.95
2018-12-21T12:39:02.183Z,982.94
2018-12-21T12:40:08.434Z,982.99
2018-12-21T12:41:14.672Z,983.07
2018-12-21T12:42:20.924Z,982.88
2018-12-21T12:43:26.659Z,982.95
2018-12-21T12:44:32.911Z,982.85
2018-12-21T12:45:39.645Z,982.91
2018-12-21T12:46:45.397Z,982.97
2018-12-21T12:47:52.145Z,982.95
2018-12-21T12:48:58.400Z,982.85
2018-12-21T12:50:04.637Z,982.82
2018-12-21T12:51:10.897Z,982.90
2018-12-21T12:52:16.646Z,983.27
2018-12-21T12:53:23.404Z,982.97
2018-12-21T12:54:29.642Z,983.00
2018-12-21T12:55:35.881Z,983.01
2018-12-21T12:56:42.137Z,982.93
2018-12-21T12:57:48.397Z,982.95
2018-12-21T12:58:54.627Z,983.07
2018-12-21T13:00:00.880Z,982.90
2018-12-21T13:01:07.131Z,982.78
2018-12-21T13:02:13.376Z,982.94
2018-12-21T13:03:19.622Z,982.69
2018-12-21T13:04:25.377Z,982.91
2018-12-21T13:05:32.104Z,983.17
2018-12-21T13:06:38.358Z,982.97
2018-12-21T13:07:44.119Z,983.11
2018-12-21T13:08:50.853Z,983.23
2018-12-21T13:09:57.074Z,983.21
2018-12-21T13:11:03.315Z,983.14
2018-12-21T13:12:09.565Z,983.28
2018-12-21T13:13:15.799Z,983.29
2018-12-21T13:14:21.544Z,983.30
2018-12-21T13:15:28.263Z,983.42
2018-12-21T13:16:34.614Z,983.42
2018-12-21T13:17:40.757Z,983.53
2018-12-21T13:18:46.972Z,983.52
2018-12-21T13:19:52.700Z,983.43
2018-12-21T13:20:58.921Z,983.45
2018-12-21T13:22:05.164Z,983.49
2018-12-21T13:23:11.881Z,983.53
2018-12-21T13:24:18.101Z,983.62
2018-12-21T13:25:24.316Z,983.57
2018-12-21T13:26:30.062Z,983.61
2018-12-21T13:27:36.783Z,983.63
2018-12-21T13:28:43.002Z,983.61
2018-12-21T13:29:49.278Z,983.70
2018-12-21T13:30:56.443Z,983.76
2018-12-21T13:32:01.179Z,983.67
2018-12-21T13:33:07.889Z,983.73
2018-12-21T13:34:13.631Z,983.80
2018-12-21T13:35:19.846Z,983.77
2018-12-21T13:36:26.057Z,983.66
2018-12-21T13:37:32.779Z,983.66
2018-12-21T13:38:38.506Z,983.77
2018-12-21T13:39:45.209Z,983.86
2018-12-21T13:40:51.438Z,983.85
2018-12-21T13:41:57.662Z,983.82
2018-12-21T13:43:03.864Z,983.77
2018-12-21T13:44:10.092Z,983.93
2018-12-21T13:45:16.329Z,983.80